Time;durP1;ratioP1;P1;durP2;ratioP2;P2;SDS_P1;SDS_P2;PMS_P1;PMS_P2;Temp;Humidity;BMP_temperature;BMP_pressure;BME280_temperature;BME280_humidity;BME280_pressure;Samples;Min_cycle;Max_cycle;Signal;HPM_P1;HPM_P2
2022/12/20 00:01:50;;;;;;;55.13;28.13;;;;;;;4.70;73.80;101124.03;5100874;27;20206;-66
2022/12/20 00:04:18;;;;;;;55.03;28.30;;;;;;;4.75;73.10;101114.91;5110891;27;20233;-66
2022/12/20 00:06:46;;;;;;;48.13;25.73;;;;;;;4.80;72.89;101128.63;5102119;27;20222;-66
2022/12/20 00:09:13;;;;;;;55.33;27.23;;;;;;;4.83;73.19;101123.19;5103396;27;20259;-66
2022/12/20 00:11:41;;;;;;;51.57;25.00;;;;;;;4.83;73.08;101112.69;5102785;27;20233;-66
2022/12/20 00:14:10;;;;;;;43.20;24.77;;;;;;;4.78;73.28;101114.72;5103238;27;20219;-66
2022/12/20 00:16:39;;;;;;;52.87;25.80;;;;;;;4.83;73.37;101112.69;5104083;27;20335;-66
2022/12/20 00:19:07;;;;;;;53.90;25.33;;;;;;;4.84;73.23;101111.72;5107435;28;20203;-66
2022/12/20 00:21:35;;;;;;;43.63;23.07;;;;;;;4.83;72.85;101107.41;5108603;27;20221;-66
2022/12/20 00:24:04;;;;;;;43.60;23.83;;;;;;;4.85;73.07;101108.16;5106632;27;20230;-66
2022/12/20 00:26:34;;;;;;;43.63;24.60;;;;;;;4.89;72.93;101091.25;5109265;27;20212;-67
2022/12/20 00:29:02;;;;;;;45.37;24.00;;;;;;;4.90;72.85;101097.38;5101096;28;20601;-67
2022/12/20 00:31:32;;;;;;;44.03;23.40;;;;;;;4.87;73.24;101098.38;5103101;27;20259;-66
2022/12/20 00:34:01;;;;;;;43.20;22.80;;;;;;;4.84;73.32;101088.06;5106604;27;20196;-67
2022/12/20 00:36:31;;;;;;;46.43;24.07;;;;;;;4.85;73.96;101089.75;5107837;28;20682;-65
2022/12/20 00:39:00;;;;;;;46.93;23.87;;;;;;;4.91;74.17;101093.78;5105140;28;20218;-65
2022/12/20 00:41:29;;;;;;;43.63;23.83;;;;;;;4.88;74.20;101089.56;5106955;28;20205;-65
2022/12/20 00:43:57;;;;;;;45.53;24.07;;;;;;;4.91;74.18;101081.50;5102332;28;20333;-65
2022/12/20 00:46:25;;;;;;;42.17;22.50;;;;;;;4.93;74.01;101087.47;5100601;28;20206;-65
2022/12/20 00:48:55;;;;;;;46.67;23.43;;;;;;;4.92;74.24;101093.66;5104966;28;20219;-66
2022/12/20 00:51:25;;;;;;;38.57;22.50;;;;;;;4.87;74.67;101093.13;5102148;28;20218;-65
2022/12/20 00:53:53;;;;;;;44.43;22.97;;;;;;;4.85;74.96;101105.50;5104338;28;20243;-66
2022/12/20 00:56:21;;;;;;;42.60;22.13;;;;;;;4.83;75.17;101107.41;5103490;28;20217;-66
2022/12/20 00:58:49;;;;;;;45.53;23.90;;;;;;;4.81;75.36;101097.94;5103837;28;20224;-66
2022/12/20 01:01:20;;;;;;;39.93;21.63;;;;;;;4.80;75.49;101096.25;5100276;28;20220;-66
2022/12/20 01:03:49;;;;;;;43.97;23.03;;;;;;;4.84;75.51;101093.31;5106831;28;20235;-66
2022/12/20 01:06:20;;;;;;;45.30;23.30;;;;;;;4.91;74.64;101096.41;5103222;28;20259;-66
2022/12/20 01:08:47;;;;;;;44.40;23.57;;;;;;;4.97;73.59;101095.19;5102638;28;20688;-67
2022/12/20 01:11:17;;;;;;;43.07;23.43;;;;;;;4.88;74.28;101089.56;5101704;28;20217;-66
2022/12/20 01:13:47;;;;;;;43.90;22.13;;;;;;;4.84;74.14;101095.94;5103624;28;20206;-66
2022/12/20 01:16:18;;;;;;;40.40;22.90;;;;;;;4.85;73.87;101100.25;5101525;28;20207;-67
2022/12/20 01:18:46;;;;;;;44.63;23.97;;;;;;;4.88;73.50;101096.59;5101462;28;20233;-66
2022/12/20 01:21:17;;;;;;;40.83;21.40;;;;;;;4.90;73.50;101092.94;5099394;28;20285;-66
2022/12/20 01:23:46;;;;;;;46.67;23.40;;;;;;;4.85;74.31;101088.91;5109636;28;20228;-66
2022/12/20 01:26:17;;;;;;;40.53;23.07;;;;;;;4.82;74.70;101086.50;5104209;28;20297;-67
2022/12/20 01:28:46;;;;;;;43.37;22.77;;;;;;;4.83;74.21;101094.28;5102795;28;20309;-67
2022/12/20 01:31:16;;;;;;;36.80;21.03;;;;;;;4.88;74.56;101084.31;5107203;27;20308;-66
2022/12/20 01:33:44;;;;;;;40.27;21.30;;;;;;;4.92;74.02;101080.53;5102745;27;20205;-66
2022/12/20 01:36:15;;;;;;;39.50;21.00;;;;;;;5.02;74.19;101074.69;5104087;27;20951;-66
2022/12/20 01:38:43;;;;;;;37.33;21.00;;;;;;;5.01;74.57;101073.88;5102505;27;20235;-66
2022/12/20 01:41:15;;;;;;;41.70;22.00;;;;;;;5.04;74.78;101067.56;5101259;27;20210;-66
2022/12/20 01:43:49;;;;;;;42.63;21.10;;;;;;;5.05;74.52;101074.50;5103141;27;20233;-66
2022/12/20 01:46:18;;;;;;;40.80;20.87;;;;;;;5.07;73.91;101072.63;5101384;27;20248;-66
2022/12/20 01:48:51;;;;;;;40.87;23.03;;;;;;;5.06;74.56;101071.78;5108543;27;20258;-67
2022/12/20 01:51:22;;;;;;;41.40;22.00;;;;;;;5.09;74.57;101071.59;5104232;27;20286;-66
2022/12/20 01:53:57;;;;;;;40.50;22.67;;;;;;;5.13;74.46;101066.97;5105415;27;20662;-66
2022/12/20 01:56:26;;;;;;;45.00;23.80;;;;;;;5.12;74.70;101062.66;5106040;27;20296;-66
2022/12/20 01:58:56;;;;;;;44.20;23.53;;;;;;;5.13;74.42;101061.72;5099702;27;20197;-66
2022/12/20 02:01:24;;;;;;;44.37;24.60;;;;;;;5.08;75.04;101056.75;5102939;27;20218;-66
2022/12/20 02:03:54;;;;;;;47.90;23.90;;;;;;;5.05;75.49;101041.19;5110285;27;20209;-66
2022/12/20 02:06:25;;;;;;;40.67;23.00;;;;;;;5.06;75.74;101047.28;5103732;27;20209;-66
2022/12/20 02:08:56;;;;;;;42.00;23.13;;;;;;;5.07;75.93;101046.34;5105768;27;20215;-66
2022/12/20 02:11:38;;;;;;;40.73;22.53;;;;;;;5.08;75.71;101034.88;5107207;27;20209;-66
2022/12/20 02:14:14;;;;;;;41.27;23.23;;;;;;;5.05;76.00;101037.69;5104396;27;20202;-66
2022/12/20 02:16:49;;;;;;;42.40;23.57;;;;;;;5.03;76.48;101040.44;5104242;27;20247;-66
2022/12/20 02:19:46;;;;;;;41.07;23.27;;;;;;;5.08;76.35;101037.53;5101480;27;20208;-66
2022/12/20 02:22:26;;;;;;;41.97;22.87;;;;;;;5.10;75.91;101035.63;5106054;27;20206;-66
2022/12/20 02:25:13;;;;;;;41.30;22.90;;;;;;;5.13;75.30;101024.91;5103277;27;20230;-66
2022/12/20 02:28:00;;;;;;;39.87;20.83;;;;;;;5.14;75.20;101016.06;5102626;27;20205;-67
2022/12/20 02:30:35;;;;;;;39.33;22.53;;;;;;;5.15;74.67;101017.78;5086484;27;20238;-66
2022/12/20 02:33:07;;;;;;;44.80;22.10;;;;;;;5.16;74.13;101019.47;5082908;28;20216;-66
2022/12/20 02:35:38;;;;;;;41.30;21.57;;;;;;;5.13;74.81;101017.88;5084846;28;20325;-67
2022/12/20 02:38:25;;;;;;;37.90;21.20;;;;;;;5.12;74.55;101005.66;5084982;28;20260;-66
2022/12/20 02:40:57;;;;;;;39.43;20.83;;;;;;;5.15;73.92;101007.25;5084321;28;20224;-67
2022/12/20 02:46:16;;;;;;;39.80;21.03;;;;;;;5.18;74.94;100992.13;5087527;28;22119;-66
2022/12/20 02:48:48;;;;;;;36.60;20.00;;;;;;;5.20;75.28;100995.47;5087757;28;20229;-66
2022/12/20 02:51:18;;;;;;;42.23;21.63;;;;;;;5.19;76.23;100995.59;5085082;28;20292;-66
2022/12/20 02:53:47;;;;;;;35.97;20.73;;;;;;;5.22;76.45;100990.13;5079419;28;20301;-66
2022/12/20 02:56:20;;;;;;;36.57;20.43;;;;;;;5.23;75.85;100991.81;5085537;28;20720;-66
2022/12/20 02:58:53;;;;;;;36.57;20.33;;;;;;;5.27;75.81;100985.41;5087151;28;20211;-66
2022/12/20 03:01:26;;;;;;;37.00;20.50;;;;;;;5.32;75.43;100987.72;5085965;28;20202;-66
2022/12/20 03:03:56;;;;;;;35.20;18.90;;;;;;;5.31;75.25;100984.25;5084724;28;20211;-66
2022/12/20 03:06:24;;;;;;;34.53;18.63;;;;;;;5.31;76.34;100979.00;5083131;28;20222;-66
2022/12/20 03:08:52;;;;;;;34.20;18.63;;;;;;;5.37;75.41;100969.84;5081842;28;20670;-67
2022/12/20 03:11:20;;;;;;;33.47;18.50;;;;;;;5.36;75.07;100971.66;5084024;28;20222;-66
2022/12/20 03:13:48;;;;;;;34.73;19.17;;;;;;;5.38;74.15;100976.78;5085472;28;20527;-67
2022/12/20 03:16:15;;;;;;;34.83;19.03;;;;;;;5.40;73.74;100974.91;5088968;28;20248;-67
2022/12/20 03:18:45;;;;;;;37.77;19.87;;;;;;;5.44;73.43;100971.13;5080390;28;20287;-66
2022/12/20 03:21:12;;;;;;;35.07;19.10;;;;;;;5.45;73.93;100963.16;5088595;28;20212;-69
2022/12/20 03:23:40;;;;;;;31.27;17.93;;;;;;;5.43;73.65;100967.66;5084935;28;20206;-67
2022/12/20 03:26:08;;;;;;;31.67;19.17;;;;;;;5.48;72.78;100962.94;5080004;28;20254;-66
2022/12/20 03:28:36;;;;;;;35.53;20.87;;;;;;;5.50;73.69;100968.94;5086421;28;20302;-66
2022/12/20 03:31:03;;;;;;;34.63;18.97;;;;;;;5.48;74.80;100968.19;5107211;27;20226;-66
2022/12/20 03:33:31;;;;;;;38.60;21.03;;;;;;;5.48;74.48;100957.66;5103524;27;20277;-66
2022/12/20 03:36:00;;;;;;;34.23;19.43;;;;;;;5.46;75.77;100953.44;5108648;27;20202;-66
2022/12/20 03:38:28;;;;;;;34.60;19.27;;;;;;;5.48;75.67;100952.41;5103356;27;20218;-66
2022/12/20 03:40:56;;;;;;;33.70;19.37;;;;;;;5.47;76.31;100955.13;5108866;27;20209;-66
2022/12/20 03:43:23;;;;;;;39.30;20.03;;;;;;;5.38;76.89;100953.13;5105900;27;20555;-67
2022/12/20 03:45:51;;;;;;;33.93;20.13;;;;;;;5.34;77.07;100956.91;5100706;27;20237;-67
2022/12/20 03:48:19;;;;;;;36.03;20.27;;;;;;;5.36;77.17;100947.16;5104422;27;20203;-67
2022/12/20 03:50:47;;;;;;;35.83;20.17;;;;;;;5.27;77.77;100959.13;5104924;27;20829;-66
2022/12/20 03:53:16;;;;;;;38.27;20.43;;;;;;;5.30;76.48;100961.53;5100910;27;20214;-66
2022/12/20 03:55:44;;;;;;;36.30;20.27;;;;;;;5.36;75.29;100971.66;5102545;27;20706;-66
2022/12/20 03:58:12;;;;;;;35.47;20.33;;;;;;;5.42;75.13;100973.03;5104179;27;20580;-66
2022/12/20 04:00:40;;;;;;;39.63;20.67;;;;;;;5.47;75.44;100966.50;5106412;27;20205;-66
2022/12/20 04:03:08;;;;;;;34.50;20.10;;;;;;;5.49;75.08;100972.50;5107827;27;20213;-66
2022/12/20 04:05:36;;;;;;;36.03;20.83;;;;;;;5.46;75.81;100980.59;5102927;27;20232;-66
2022/12/20 04:08:04;;;;;;;34.77;20.97;;;;;;;5.49;75.04;100985.66;5105189;27;20672;-66
2022/12/20 04:11:14;;;;;;;37.60;20.83;;;;;;;5.49;75.36;100977.75;5106089;27;20210;-66
2022/12/20 04:13:21;;;;;;;35.63;20.33;;;;;;;5.52;75.21;100969.69;5106794;27;20314;-66
2022/12/20 04:15:48;;;;;;;36.20;20.17;;;;;;;5.53;75.40;100971.38;5103849;27;20202;-66
2022/12/20 04:18:21;;;;;;;41.77;21.30;;;;;;;5.47;76.60;100974.38;5101395;27;20924;-66
2022/12/20 04:20:53;;;;;;;41.03;21.57;;;;;;;5.51;76.30;100968.00;5099735;27;20216;-67
2022/12/20 04:23:20;;;;;;;39.50;22.80;;;;;;;5.55;76.10;100958.09;5111207;27;20206;-66
2022/12/20 04:25:49;;;;;;;42.07;22.53;;;;;;;5.57;75.92;100954.41;5102012;28;20229;-66
2022/12/20 04:28:17;;;;;;;40.20;22.60;;;;;;;5.60;75.49;100945.47;5103066;27;20576;-66
2022/12/20 04:30:45;;;;;;;37.63;21.40;;;;;;;5.62;75.16;100947.06;5081777;28;20488;-66
2022/12/20 04:33:13;;;;;;;41.73;22.47;;;;;;;5.60;75.79;100935.78;5084973;28;20219;-66
2022/12/20 04:35:41;;;;;;;36.83;20.43;;;;;;;5.58;75.76;100929.78;5080765;28;20208;-67
2022/12/20 04:38:08;;;;;;;36.13;21.23;;;;;;;5.60;75.41;100934.94;5082728;28;20221;-66
2022/12/20 04:40:36;;;;;;;31.53;19.73;;;;;;;5.63;75.25;100937.34;5084318;28;20242;-66
2022/12/20 04:43:05;;;;;;;35.97;19.57;;;;;;;5.66;75.41;100926.63;5086445;28;20206;-66
2022/12/20 04:45:33;;;;;;;36.37;20.47;;;;;;;5.61;76.08;100926.97;5091469;28;20703;-66
2022/12/20 04:48:01;;;;;;;33.47;19.60;;;;;;;5.56;76.42;100922.94;5077108;28;20217;-66
2022/12/20 04:50:50;;;;;;;34.10;18.67;;;;;;;5.55;76.01;100927.34;5082738;28;20210;-66
2022/12/20 04:56:03;;;;;;;31.37;17.33;;;;;;;5.55;75.64;100926.50;5083075;28;20678;-66
2022/12/20 04:58:33;;;;;;;33.80;18.63;;;;;;;5.59;75.90;100928.00;5084035;28;20211;-66
2022/12/20 05:01:00;;;;;;;32.97;18.80;;;;;;;5.60;76.29;100919.16;5084033;28;20229;-66
2022/12/20 05:03:28;;;;;;;30.53;17.10;;;;;;;5.61;75.49;100921.69;5079231;28;20249;-66
2022/12/20 05:05:56;;;;;;;29.40;16.90;;;;;;;5.62;74.94;100912.03;5086004;28;20694;-66
2022/12/20 05:08:24;;;;;;;34.60;18.83;;;;;;;5.64;75.24;100918.84;5083130;28;20207;-67
2022/12/20 05:10:52;;;;;;;31.13;16.97;;;;;;;5.68;75.49;100922.94;5082464;28;20325;-67
2022/12/20 05:13:20;;;;;;;31.27;17.67;;;;;;;5.72;75.57;100923.56;5084041;28;20800;-66
2022/12/20 05:15:52;;;;;;;31.30;18.37;;;;;;;5.75;75.68;100933.03;5081197;28;20219;-66
2022/12/20 05:18:21;;;;;;;38.83;18.97;;;;;;;5.74;76.45;100926.09;5083184;28;20231;-66
2022/12/20 05:26:15;;;;;;;33.23;19.80;;;;;;;5.73;76.88;100929.66;5085442;28;20551;-67
2022/12/20 05:26:23;;;;;;;29.77;17.67;;;;;;;5.73;77.22;100919.16;5087631;28;20246;-67
2022/12/20 05:28:52;;;;;;;32.13;18.50;;;;;;;5.76;77.20;100913.69;5089410;27;20933;-67
2022/12/20 05:31:21;;;;;;;33.43;18.33;;;;;;;5.78;76.41;100917.06;5106568;27;20824;-67
2022/12/20 05:33:49;;;;;;;32.10;18.47;;;;;;;5.80;76.16;100912.53;5106391;27;21999;-67
2022/12/20 05:36:17;;;;;;;29.67;16.57;;;;;;;5.77;75.65;100918.00;5104161;27;20214;-66
2022/12/20 05:38:45;;;;;;;31.23;17.93;;;;;;;5.79;75.56;100921.38;5105985;27;20803;-67
2022/12/20 05:41:12;;;;;;;29.93;17.70;;;;;;;5.80;76.27;100918.63;5105653;27;21637;-66
2022/12/20 05:43:40;;;;;;;28.23;17.53;;;;;;;5.80;76.37;100923.06;5108649;27;20230;-67
2022/12/20 05:46:08;;;;;;;33.10;17.03;;;;;;;5.83;75.61;100917.56;5102286;27;20241;-67
2022/12/20 05:48:37;;;;;;;31.47;18.43;;;;;;;5.85;75.30;100920.94;5103722;27;20204;-67
2022/12/20 05:51:05;;;;;;;32.03;17.73;;;;;;;5.84;76.56;100906.09;5108216;27;20314;-67
2022/12/20 05:53:33;;;;;;;33.37;17.40;;;;;;;5.84;76.46;100911.34;5107700;27;20209;-67
2022/12/20 05:56:01;;;;;;;28.43;16.67;;;;;;;5.90;75.19;100905.69;5103084;27;20313;-67
2022/12/20 05:58:30;;;;;;;29.87;17.00;;;;;;;5.91;75.19;100902.09;5108411;27;20213;-67
2022/12/20 06:01:04;;;;;;;29.87;17.17;;;;;;;5.91;76.01;100896.84;5109640;27;20604;-67
2022/12/20 06:03:32;;;;;;;29.00;16.47;;;;;;;5.88;75.94;100894.44;5105881;27;20208;-67
2022/12/20 06:06:01;;;;;;;31.10;17.30;;;;;;;5.91;75.94;100896.84;5099539;27;20945;-67
2022/12/20 06:08:29;;;;;;;31.40;17.10;;;;;;;5.89;74.51;100890.88;5105743;27;20204;-67
2022/12/20 06:10:57;;;;;;;30.03;16.80;;;;;;;5.90;75.64;100895.16;5102392;27;20217;-67
2022/12/20 06:13:25;;;;;;;26.20;15.40;;;;;;;5.89;75.50;100890.88;5104648;27;20330;-67
2022/12/20 06:15:52;;;;;;;30.47;17.17;;;;;;;5.89;75.24;100889.06;5104562;27;20205;-67
2022/12/20 06:18:20;;;;;;;28.77;16.23;;;;;;;5.89;75.57;100890.88;5106286;27;20852;-67
2022/12/20 06:20:50;;;;;;;30.97;17.53;;;;;;;5.90;75.27;100889.91;5109036;27;20202;-67
2022/12/20 06:23:19;;;;;;;27.07;16.77;;;;;;;5.92;75.08;100885.38;5106311;27;20205;-65
2022/12/20 06:25:47;;;;;;;29.93;15.63;;;;;;;5.92;75.81;100877.47;5105507;27;20214;-66
2022/12/20 06:28:20;;;;;;;33.50;18.10;;;;;;;5.93;75.88;100863.38;5104113;27;20325;-66
2022/12/20 06:30:52;;;;;;;29.67;18.03;;;;;;;5.85;77.51;100858.63;5101899;27;20646;-65
2022/12/20 06:33:20;;;;;;;30.33;17.40;;;;;;;5.83;78.23;100862.28;5104357;27;20225;-66
2022/12/20 06:35:49;;;;;;;29.63;16.90;;;;;;;5.79;77.71;100874.00;5106538;27;20225;-66
2022/12/20 06:38:19;;;;;;;30.13;17.50;;;;;;;5.81;77.51;100869.44;5104220;27;20198;-67
2022/12/20 06:40:46;;;;;;;30.17;17.27;;;;;;;5.80;78.49;100871.28;5103081;27;20288;-66
2022/12/20 06:43:14;;;;;;;27.63;16.60;;;;;;;5.84;78.65;100885.03;5101881;27;20206;-65
2022/12/20 06:45:42;;;;;;;30.83;17.73;;;;;;;5.86;77.90;100883.16;5107953;27;20210;-65
2022/12/20 06:48:11;;;;;;;30.07;16.27;;;;;;;5.90;77.93;100884.63;5102378;27;20649;-65
2022/12/20 06:50:39;;;;;;;26.77;16.60;;;;;;;5.90;77.40;100885.47;5107218;27;20296;-66
2022/12/20 06:53:07;;;;;;;26.83;16.00;;;;;;;5.95;77.81;100901.81;5106301;27;20309;-66
2022/12/20 06:55:36;;;;;;;26.07;16.43;;;;;;;5.98;77.87;100895.50;5107362;27;20234;-66
2022/12/20 06:58:04;;;;;;;26.70;16.03;;;;;;;5.99;77.87;100894.50;5107476;27;20226;-67
2022/12/20 07:00:32;;;;;;;29.27;16.77;;;;;;;6.02;77.64;100894.31;5105809;27;20221;-65
2022/12/20 07:02:59;;;;;;;28.10;15.37;;;;;;;6.06;77.99;100895.78;5108538;27;20207;-67
2022/12/20 07:05:30;;;;;;;27.27;15.27;;;;;;;6.03;77.98;100885.47;5110057;27;20209;-66
2022/12/20 07:07:58;;;;;;;26.43;15.00;;;;;;;6.04;77.77;100892.41;5109980;27;21088;-67
2022/12/20 07:10:26;;;;;;;30.97;15.60;;;;;;;6.06;76.33;100880.00;5113778;27;20219;-66
2022/12/20 07:12:55;;;;;;;26.50;15.37;;;;;;;6.09;75.11;100882.38;5108839;27;20253;-67
2022/12/20 07:15:23;;;;;;;24.77;14.83;;;;;;;6.14;74.69;100872.38;5112477;27;20325;-66
2022/12/20 07:17:55;;;;;;;28.67;17.03;;;;;;;6.19;74.53;100864.97;5113224;27;20225;-67
2022/12/20 07:20:23;;;;;;;27.47;16.17;;;;;;;6.20;74.96;100873.72;5112358;27;20210;-67
2022/12/20 07:22:51;;;;;;;25.73;15.43;;;;;;;6.18;76.02;100865.91;5110742;27;20238;-67
2022/12/20 07:25:19;;;;;;;31.70;14.93;;;;;;;6.16;76.79;100870.44;5114202;27;20205;-66
2022/12/20 07:27:48;;;;;;;28.43;15.90;;;;;;;6.14;78.03;100872.38;5107282;27;20221;-67
2022/12/20 07:30:19;;;;;;;28.55;19.13;;;;;;;6.13;79.52;100868.06;5091013;27;20478;-61
2022/12/20 07:32:47;;;;;;;29.53;16.23;;;;;;;6.03;79.84;100869.66;5084733;28;20640;-60
2022/12/20 07:35:15;;;;;;;26.60;15.37;;;;;;;6.02;80.11;100873.25;5086873;28;20233;-59
2022/12/20 07:37:43;;;;;;;28.07;16.33;;;;;;;6.00;80.03;100869.88;5089580;28;20206;-60
2022/12/20 07:40:13;;;;;;;25.37;14.77;;;;;;;5.98;80.32;100874.44;5088506;28;20305;-60
2022/12/20 07:42:41;;;;;;;29.07;15.77;;;;;;;6.00;79.72;100875.13;5087205;28;20207;-60
2022/12/20 07:45:15;;;;;;;28.67;16.20;;;;;;;5.97;80.87;100875.38;5083053;28;20734;-59
2022/12/20 07:47:44;;;;;;;26.93;16.03;;;;;;;5.95;80.96;100878.09;5086069;28;20234;-61
2022/12/20 07:50:15;;;;;;;28.53;15.17;;;;;;;5.96;81.20;100871.91;5075951;28;20787;-60
2022/12/20 07:52:45;;;;;;;31.07;15.60;;;;;;;5.95;81.74;100872.00;5088779;28;20648;-60
2022/12/20 07:55:14;;;;;;;27.87;16.40;;;;;;;5.95;81.14;100866.75;5085124;28;20301;-60
2022/12/20 07:57:47;;;;;;;29.50;16.23;;;;;;;5.95;81.58;100862.31;5084961;28;20198;-60
2022/12/20 08:00:17;;;;;;;33.87;16.77;;;;;;;5.94;82.11;100854.53;5082609;28;20208;-60
2022/12/20 08:02:52;;;;;;;31.00;15.77;;;;;;;5.93;82.07;100845.78;5085037;28;20567;-62
2022/12/20 08:05:23;;;;;;;28.07;16.57;;;;;;;5.91;82.03;100833.66;5084927;28;20218;-60
2022/12/20 08:07:52;;;;;;;28.17;15.70;;;;;;;5.94;81.71;100838.72;5081858;28;20246;-60
2022/12/20 08:10:26;;;;;;;26.70;15.97;;;;;;;5.94;82.08;100836.94;5086325;28;20207;-60
2022/12/20 08:12:55;;;;;;;27.13;15.63;;;;;;;5.96;82.46;100828.94;5087842;28;20321;-60
2022/12/20 08:15:23;;;;;;;31.83;16.00;;;;;;;5.99;82.58;100831.31;5090935;28;20210;-60
2022/12/20 08:17:52;;;;;;;27.53;16.87;;;;;;;6.01;81.47;100834.69;5087890;28;20561;-60
2022/12/20 08:20:20;;;;;;;34.93;16.57;;;;;;;6.05;81.75;100846.72;5083452;28;20234;-60
2022/12/20 08:22:48;;;;;;;30.90;16.47;;;;;;;6.06;81.57;100845.75;5089807;28;20215;-61
2022/12/20 08:25:16;;;;;;;30.27;16.33;;;;;;;6.12;81.22;100840.03;5085890;28;20202;-59
2022/12/20 08:27:44;;;;;;;28.17;16.20;;;;;;;6.16;80.70;100833.59;5085627;28;20219;-60
2022/12/20 08:30:13;;;;;;;27.23;15.67;;;;;;;6.18;79.10;100833.47;5097389;28;20291;-60
2022/12/20 08:32:41;;;;;;;26.07;15.00;;;;;;;6.26;77.46;100829.34;5107934;27;20237;-59
2022/12/20 08:35:11;;;;;;;30.07;14.87;;;;;;;6.32;76.29;100828.91;5104667;28;20758;-60
2022/12/20 08:37:39;;;;;;;23.77;14.93;;;;;;;6.37;76.38;100832.03;5103976;27;20202;-59
2022/12/20 08:40:09;;;;;;;24.37;13.20;;;;;;;6.37;76.38;100832.03;5103664;28;20688;-59
2022/12/20 08:42:37;;;;;;;25.03;14.40;;;;;;;6.40;75.64;100826.56;5104249;28;20292;-60
2022/12/20 08:45:05;;;;;;;28.17;15.33;;;;;;;6.47;76.97;100820.81;5108092;28;20212;-60
2022/12/20 08:47:33;;;;;;;25.87;16.07;;;;;;;6.40;78.78;100823.06;5111006;28;20582;-60
2022/12/20 08:50:01;;;;;;;25.50;15.60;;;;;;;6.34;79.97;100816.44;5103595;28;20600;-60
2022/12/20 08:52:30;;;;;;;25.67;15.83;;;;;;;6.25;80.95;100805.75;5104507;28;20554;-60
2022/12/20 08:54:58;;;;;;;31.30;15.63;;;;;;;6.21;81.38;100794.59;5101738;28;20296;-60
2022/12/20 08:57:28;;;;;;;26.97;16.00;;;;;;;6.18;82.21;100800.09;5106302;28;20251;-60
2022/12/20 08:59:56;;;;;;;25.83;15.70;;;;;;;6.17;81.16;100803.66;5100955;28;20796;-60
2022/12/20 09:02:24;;;;;;;29.43;15.03;;;;;;;6.26;78.95;100808.28;5105930;28;20210;-60
2022/12/20 09:04:52;;;;;;;23.90;14.53;;;;;;;6.36;78.04;100806.66;5106131;28;20210;-59
2022/12/20 09:07:19;;;;;;;24.90;14.60;;;;;;;6.46;77.03;100803.34;5106696;28;20217;-61
2022/12/20 09:09:48;;;;;;;26.30;14.03;;;;;;;6.52;77.08;100793.16;5108681;28;20222;-61
2022/12/20 09:12:16;;;;;;;25.73;14.20;;;;;;;6.58;76.37;100781.34;5104234;28;20734;-61
2022/12/20 09:14:44;;;;;;;25.63;14.83;;;;;;;6.62;76.46;100795.97;5104737;28;20216;-61
2022/12/20 09:17:12;;;;;;;28.13;15.13;;;;;;;6.61;77.15;100802.19;5107565;28;20205;-61
2022/12/20 09:19:39;;;;;;;21.80;13.53;;;;;;;6.62;77.32;100824.94;5104691;28;20208;-60
2022/12/20 09:22:07;;;;;;;25.93;14.50;;;;;;;6.68;76.43;100819.25;5106614;28;20210;-61
2022/12/20 09:24:37;;;;;;;22.47;13.50;;;;;;;6.74;75.69;100826.69;5109771;28;20304;-60
2022/12/20 09:27:06;;;;;;;28.17;14.40;;;;;;;6.79;74.91;100825.38;5104220;28;20206;-61
2022/12/20 09:29:34;;;;;;;26.90;13.87;;;;;;;6.86;74.27;100823.09;5104391;28;20250;-59
2022/12/20 09:32:02;;;;;;;23.17;13.93;;;;;;;6.85;75.04;100810.91;5108851;28;20301;-60
2022/12/20 09:34:30;;;;;;;26.63;15.33;;;;;;;6.84;74.71;100803.94;5104702;28;20206;-61
2022/12/20 09:36:58;;;;;;;23.97;13.73;;;;;;;6.89;73.49;100804.44;5109955;28;20659;-62
2022/12/20 09:39:25;;;;;;;25.30;14.30;;;;;;;6.90;73.46;100807.91;5103912;28;20217;-59
2022/12/20 09:41:53;;;;;;;26.90;15.03;;;;;;;6.92;73.47;100801.56;5110434;28;20206;-60
2022/12/20 09:44:27;;;;;;;29.17;15.13;;;;;;;6.99;73.59;100801.94;5106659;28;20211;-61
2022/12/20 09:46:57;;;;;;;24.20;13.83;;;;;;;7.04;72.96;100800.63;5107509;28;20218;-59
2022/12/20 09:49:28;;;;;;;22.77;14.03;;;;;;;7.12;72.16;100790.31;5103575;28;20253;-61
2022/12/20 09:52:25;;;;;;;28.13;14.80;;;;;;;7.18;72.82;100786.38;5109172;27;20235;-61
2022/12/20 09:55:02;;;;;;;23.30;13.27;;;;;;;7.14;72.56;100766.47;5110743;27;20240;-61
2022/12/20 09:57:40;;;;;;;29.43;15.40;;;;;;;7.14;73.77;100774.38;5110697;27;20277;-61
2022/12/20 10:00:15;;;;;;;25.73;14.93;;;;;;;7.12;74.19;100781.59;5107501;27;21628;-61
2022/12/20 10:02:43;;;;;;;26.30;14.77;;;;;;;7.12;73.62;100782.41;5108336;27;20203;-60
2022/12/20 10:05:35;;;;;;;22.63;13.73;;;;;;;7.12;73.32;100776.31;5109676;27;20207;-61
2022/12/20 10:08:16;;;;;;;28.43;15.17;;;;;;;7.11;76.04;100775.47;5103144;27;20202;-60
2022/12/20 10:10:54;;;;;;;22.03;13.77;;;;;;;7.04;74.95;100771.59;5100833;27;20212;-60
2022/12/20 10:13:43;;;;;;;27.70;14.33;;;;;;;7.06;74.41;100774.97;5105913;27;20230;-60
2022/12/20 10:16:28;;;;;;;26.30;14.57;;;;;;;7.06;74.02;100766.22;5107252;27;20711;-63
2022/12/20 10:19:13;;;;;;;25.23;14.43;;;;;;;7.10;73.99;100773.78;5105334;27;20293;-60
2022/12/20 10:21:48;;;;;;;24.97;14.47;;;;;;;7.09;73.86;100782.66;5105359;27;20245;-59
2022/12/20 10:24:19;;;;;;;25.00;14.83;;;;;;;7.09;73.59;100781.81;5106837;27;20719;-60
2022/12/20 10:26:50;;;;;;;23.67;13.67;;;;;;;7.12;73.42;100777.13;5109933;27;20207;-60
2022/12/20 10:29:18;;;;;;;22.70;13.97;;;;;;;7.11;73.28;100780.75;5095569;28;20242;-60
2022/12/20 10:31:49;;;;;;;25.20;14.47;;;;;;;7.10;72.77;100768.53;5107298;27;20217;-60
2022/12/20 10:34:17;;;;;;;24.37;14.10;;;;;;;7.12;73.03;100769.22;5100506;27;20215;-60
2022/12/20 10:36:45;;;;;;;26.00;15.13;;;;;;;7.11;73.81;100758.81;5106788;27;20271;-60
2022/12/20 10:39:13;;;;;;;29.93;15.10;;;;;;;7.08;74.64;100754.59;5109169;27;20252;-60
2022/12/20 10:41:50;;;;;;;24.10;15.00;;;;;;;7.14;75.16;100754.13;5108894;27;20206;-60
2022/12/20 10:44:23;;;;;;;23.67;15.10;;;;;;;7.12;75.77;100766.56;5109117;27;20669;-60
2022/12/20 10:46:55;;;;;;;22.87;14.00;;;;;;;7.15;73.81;100761.06;5110464;27;20198;-60
2022/12/20 10:49:33;;;;;;;27.47;14.73;;;;;;;7.22;73.08;100753.53;5107643;27;20252;-60
2022/12/20 10:52:04;;;;;;;24.87;14.50;;;;;;;7.27;73.32;100753.19;5107271;27;20361;-60
2022/12/20 10:54:34;;;;;;;27.63;16.30;;;;;;;7.29;75.14;100738.06;5107708;27;20294;-60
2022/12/20 10:57:13;;;;;;;30.23;15.43;;;;;;;7.25;76.28;100733.97;5113367;27;20208;-60
2022/12/20 10:59:45;;;;;;;29.87;16.50;;;;;;;7.16;77.11;100719.72;5113969;27;20202;-61
2022/12/20 11:02:32;;;;;;;31.20;16.77;;;;;;;7.21;77.98;100707.03;5107557;27;20212;-61
2022/12/20 11:05:22;;;;;;;26.73;16.03;;;;;;;7.21;78.68;100716.75;5111033;27;20202;-62
2022/12/20 11:07:56;;;;;;;30.27;17.77;;;;;;;7.17;79.14;100710.84;5111727;27;20318;-60
2022/12/20 11:10:45;;;;;;;30.27;18.03;;;;;;;7.14;79.10;100711.94;5109327;27;20338;-62
2022/12/20 11:13:22;;;;;;;29.60;17.53;;;;;;;7.20;79.19;100710.63;5111576;27;20570;-60
2022/12/20 11:15:54;;;;;;;29.47;17.57;;;;;;;7.18;78.87;100710.75;5108191;27;20202;-61
2022/12/20 11:18:38;;;;;;;22.30;15.10;;;;;;;7.25;78.85;100719.00;5107593;27;20293;-61
2022/12/20 11:21:17;;;;;;;22.00;13.87;;;;;;;7.28;77.88;100710.84;5109054;27;20227;-60
2022/12/20 11:24:02;;;;;;;26.07;15.10;;;;;;;7.36;78.39;100700.53;5111670;27;20197;-60
2022/12/20 11:26:41;;;;;;;24.97;15.27;;;;;;;7.39;78.80;100700.28;5111974;27;20207;-60
2022/12/20 11:29:24;;;;;;;24.13;13.80;;;;;;;7.38;77.44;100693.34;5109779;27;20326;-61
2022/12/20 11:32:01;;;;;;;27.27;16.63;;;;;;;7.47;78.11;100699.69;5111737;27;20211;-61
2022/12/20 11:34:42;;;;;;;23.70;14.67;;;;;;;7.46;77.96;100698.00;5101812;27;20201;-61
2022/12/20 11:37:18;;;;;;;25.73;14.87;;;;;;;7.52;75.33;100694.88;5110352;27;20200;-61
2022/12/20 11:40:00;;;;;;;27.57;15.13;;;;;;;7.53;74.11;100692.09;5108655;27;20232;-61
2022/12/20 11:42:38;;;;;;;25.70;14.50;;;;;;;7.60;73.50;100697.72;5114297;27;20220;-61